createdAt,value
2018-07-09T00:00:27.755Z,22.40
2018-07-09T00:02:56.092Z,22.40
2018-07-09T00:05:24.369Z,22.30
2018-07-09T00:07:53.299Z,22.30
2018-07-09T00:12:55.535Z,22.30
2018-07-09T00:15:23.901Z,22.30
2018-07-09T00:17:52.165Z,22.20
2018-07-09T00:22:48.413Z,22.10
2018-07-09T00:25:16.764Z,22.10
2018-07-09T00:27:45.884Z,22.00
2018-07-09T00:30:14.125Z,21.90
2018-07-09T00:32:42.420Z,21.90
2018-07-09T00:35:10.694Z,21.80
2018-07-09T00:37:38.934Z,21.80
2018-07-09T00:40:07.274Z,21.70
2018-07-09T00:42:36.028Z,21.60
2018-07-09T00:45:05.100Z,21.60
2018-07-09T00:50:01.463Z,21.50
2018-07-09T00:52:29.950Z,21.40
2018-07-09T00:54:58.259Z,21.30
2018-07-09T00:57:26.608Z,21.30
2018-07-09T01:02:23.022Z,21.20
2018-07-09T01:04:51.254Z,21.20
2018-07-09T01:07:19.484Z,21.10
2018-07-09T01:09:47.721Z,21.10
2018-07-09T01:12:16.027Z,21.00
2018-07-09T01:14:44.299Z,21.00
2018-07-09T01:17:12.730Z,21.00
2018-07-09T01:19:41.099Z,20.90
2018-07-09T01:22:09.736Z,20.80
2018-07-09T01:24:38.165Z,20.80
2018-07-09T01:27:07.073Z,20.70
2018-07-09T01:29:35.510Z,20.70
2018-07-09T01:32:03.851Z,20.70
2018-07-09T01:34:32.206Z,20.60
2018-07-09T01:37:00.589Z,20.60
2018-07-09T01:39:29.175Z,20.60
2018-07-09T01:41:57.521Z,20.50
2018-07-09T01:44:25.814Z,20.50
2018-07-09T01:46:54.228Z,20.40
2018-07-09T01:49:22.679Z,20.40
2018-07-09T01:51:51.203Z,20.30
2018-07-09T01:54:19.684Z,20.30
2018-07-09T01:56:47.949Z,20.30
2018-07-09T01:59:16.247Z,20.20
2018-07-09T02:01:44.500Z,20.20
2018-07-09T02:04:13.116Z,20.10
2018-07-09T02:06:41.571Z,20.10
2018-07-09T02:09:09.953Z,20.10
2018-07-09T02:11:38.740Z,20.10
2018-07-09T02:14:07.856Z,20.00
2018-07-09T02:16:36.192Z,20.00
2018-07-09T02:19:04.397Z,20.00
2018-07-09T02:21:32.645Z,19.90
2018-07-09T02:24:00.913Z,19.90
2018-07-09T02:26:29.527Z,19.80
2018-07-09T02:28:57.813Z,19.80
2018-07-09T02:31:26.111Z,19.80
2018-07-09T02:33:54.394Z,19.70
2018-07-09T02:36:22.696Z,19.70
2018-07-09T02:38:51.067Z,19.70
2018-07-09T02:41:19.373Z,19.60
2018-07-09T02:43:47.635Z,19.60
2018-07-09T02:46:15.872Z,19.60
2018-07-09T02:48:44.131Z,19.60
2018-07-09T02:51:12.384Z,19.50
2018-07-09T02:53:40.688Z,19.40
2018-07-09T02:56:09.040Z,19.40
2018-07-09T02:58:37.293Z,19.40
2018-07-09T03:01:05.760Z,19.40
2018-07-09T03:03:34.016Z,19.40
2018-07-09T03:06:02.364Z,19.40
2018-07-09T03:08:30.634Z,19.30
2018-07-09T03:10:58.913Z,19.30
2018-07-09T03:13:28.243Z,19.30
2018-07-09T03:15:56.520Z,19.30
2018-07-09T03:18:24.854Z,19.20
2018-07-09T03:20:53.117Z,19.20
2018-07-09T03:23:21.381Z,19.20
2018-07-09T03:25:49.637Z,19.20
2018-07-09T03:28:17.951Z,19.10
2018-07-09T03:30:46.266Z,19.10
2018-07-09T03:33:14.568Z,19.10
2018-07-09T03:35:42.817Z,19.00
2018-07-09T03:38:11.112Z,19.00
2018-07-09T03:43:07.395Z,19.00
2018-07-09T03:45:35.709Z,19.00
2018-07-09T03:48:03.984Z,19.00
2018-07-09T03:50:32.356Z,18.90
2018-07-09T03:53:00.629Z,18.90
2018-07-09T03:55:29.007Z,18.80
2018-07-09T03:57:57.695Z,18.80
2018-07-09T04:00:27.240Z,18.80
2018-07-09T04:02:56.009Z,18.90
2018-07-09T04:05:24.250Z,18.80
2018-07-09T04:07:52.592Z,18.90
2018-07-09T04:10:20.898Z,18.80
2018-07-09T04:12:49.192Z,18.90
2018-07-09T04:15:17.490Z,18.80
2018-07-09T04:17:45.844Z,18.90
2018-07-09T04:20:14.168Z,18.90
2018-07-09T04:22:42.444Z,18.90
2018-07-09T04:25:10.753Z,19.00
2018-07-09T04:27:39.022Z,19.00
2018-07-09T04:30:07.338Z,19.00
2018-07-09T04:32:36.105Z,19.10
2018-07-09T04:35:04.408Z,19.20
2018-07-09T04:37:33.322Z,19.20
2018-07-09T04:42:25.412Z,19.30
2018-07-09T04:44:54.563Z,19.40
2018-07-09T04:47:22.816Z,19.50
2018-07-09T04:49:51.166Z,19.50
2018-07-09T04:52:19.497Z,19.50
2018-07-09T04:54:47.794Z,19.60
2018-07-09T04:59:44.611Z,19.70
2018-07-09T05:02:12.908Z,19.80
2018-07-09T05:04:41.169Z,19.90
2018-07-09T05:07:09.451Z,20.00
2018-07-09T05:09:37.753Z,20.00
2018-07-09T05:12:06.185Z,20.10
2018-07-09T05:14:34.505Z,20.10
2018-07-09T05:17:02.844Z,20.20
2018-07-09T05:19:31.125Z,20.30
2018-07-09T05:24:27.531Z,20.30
2018-07-09T05:26:55.808Z,20.40
2018-07-09T05:29:24.029Z,20.40
2018-07-09T05:31:52.445Z,20.50
2018-07-09T05:34:20.779Z,20.60
2018-07-09T05:36:49.074Z,20.60
2018-07-09T05:39:17.311Z,20.70
2018-07-09T05:41:46.241Z,20.70
2018-07-09T05:44:14.468Z,20.80
2018-07-09T05:46:42.756Z,20.80
2018-07-09T05:49:11.184Z,20.80
2018-07-09T05:51:39.492Z,20.90
2018-07-09T05:54:07.791Z,20.90
2018-07-09T05:56:36.200Z,20.90
2018-07-09T05:59:04.555Z,20.80
2018-07-09T06:01:32.923Z,20.90
2018-07-09T06:04:01.199Z,20.90
2018-07-09T06:06:29.507Z,21.00
2018-07-09T06:08:57.734Z,21.00
2018-07-09T06:11:26.094Z,20.90
2018-07-09T06:13:54.639Z,21.00
2018-07-09T06:16:22.888Z,21.10
2018-07-09T06:18:51.118Z,21.10
2018-07-09T06:21:19.392Z,21.20
2018-07-09T06:23:48.227Z,21.30
2018-07-09T06:26:16.512Z,21.40
2018-07-09T06:28:44.860Z,21.30
2018-07-09T06:31:13.180Z,21.40
2018-07-09T06:33:41.713Z,21.50
2018-07-09T06:36:10.032Z,21.60
2018-07-09T06:38:38.317Z,21.60
2018-07-09T06:41:06.619Z,21.70
2018-07-09T06:43:34.945Z,21.80
2018-07-09T06:46:03.307Z,21.80
2018-07-09T06:48:31.669Z,21.80
2018-07-09T06:50:59.917Z,21.90
2018-07-09T06:53:28.171Z,22.00
2018-07-09T06:55:56.548Z,21.90
2018-07-09T06:58:24.879Z,22.00
2018-07-09T07:00:54.304Z,22.10
2018-07-09T07:03:22.581Z,22.20
2018-07-09T07:05:51.015Z,22.20
2018-07-09T07:08:19.328Z,22.30
2018-07-09T07:10:47.783Z,22.40
2018-07-09T07:13:16.108Z,22.40
2018-07-09T07:15:44.420Z,22.50
2018-07-09T07:20:40.692Z,22.70
2018-07-09T07:23:08.991Z,22.70
2018-07-09T07:25:37.327Z,22.80
2018-07-09T07:28:05.671Z,22.90
2018-07-09T07:30:33.949Z,23.00
2018-07-09T07:33:02.247Z,23.10
2018-07-09T07:35:30.515Z,23.10
2018-07-09T07:37:58.852Z,23.20
2018-07-09T07:40:27.132Z,23.30
2018-07-09T07:42:55.344Z,23.40
2018-07-09T07:45:23.550Z,23.40
2018-07-09T07:47:52.059Z,23.50
2018-07-09T07:50:20.423Z,23.50
2018-07-09T07:52:48.739Z,23.60
2018-07-09T07:55:17.028Z,23.70
2018-07-09T07:57:45.518Z,23.90
2018-07-09T08:00:13.876Z,23.80
2018-07-09T08:02:42.211Z,23.90
2018-07-09T08:05:10.553Z,24.00
2018-07-09T08:07:38.833Z,23.90
2018-07-09T08:10:07.584Z,23.90
2018-07-09T08:13:27.175Z,23.90
2018-07-09T08:15:05.186Z,23.90
2018-07-09T08:17:33.457Z,23.90
2018-07-09T08:20:01.690Z,24.00
2018-07-09T08:22:30.015Z,24.00
2018-07-09T08:24:58.410Z,24.10
2018-07-09T08:27:26.532Z,24.10
2018-07-09T08:29:54.831Z,24.20
2018-07-09T08:32:23.130Z,24.20
2018-07-09T08:34:51.682Z,24.20
2018-07-09T08:37:19.980Z,24.20
2018-07-09T08:39:48.347Z,24.20
2018-07-09T08:42:16.619Z,24.20
2018-07-09T08:44:44.956Z,24.20
2018-07-09T08:47:13.789Z,24.20
2018-07-09T08:49:42.001Z,24.20
2018-07-09T08:52:10.324Z,24.30
2018-07-09T08:54:38.619Z,24.30
2018-07-09T08:59:35.075Z,24.40
2018-07-09T09:02:03.423Z,24.40
2018-07-09T09:04:31.730Z,24.50
2018-07-09T09:07:00.133Z,24.60
2018-07-09T09:09:28.445Z,24.60
2018-07-09T09:11:56.653Z,24.70
2018-07-09T09:14:24.922Z,24.80
2018-07-09T09:16:53.246Z,24.80
2018-07-09T09:19:21.569Z,25.00
2018-07-09T09:21:49.886Z,25.10
2018-07-09T09:24:18.168Z,25.20
2018-07-09T09:26:46.417Z,25.40
2018-07-09T09:29:14.755Z,25.60
2018-07-09T09:31:43.132Z,25.90
2018-07-09T09:34:11.429Z,26.20
2018-07-09T09:36:39.696Z,26.40
2018-07-09T09:39:08.616Z,26.80
2018-07-09T09:41:37.153Z,27.10
2018-07-09T09:44:05.456Z,27.40
2018-07-09T09:46:33.792Z,27.80
2018-07-09T09:49:02.863Z,28.20
2018-07-09T09:51:31.188Z,28.50
2018-07-09T09:53:59.512Z,29.00
2018-07-09T09:56:27.849Z,29.40
2018-07-09T09:58:56.171Z,29.80
2018-07-09T10:03:52.618Z,30.40
2018-07-09T10:06:21.004Z,30.60
2018-07-09T10:08:49.487Z,30.70
2018-07-09T10:13:46.196Z,30.00
2018-07-09T10:16:14.464Z,29.70
2018-07-09T10:18:42.810Z,29.40
2018-07-09T10:21:11.128Z,28.90
2018-07-09T10:23:39.491Z,28.40
2018-07-09T10:26:08.077Z,27.90
2018-07-09T10:28:36.773Z,27.50
2018-07-09T10:33:33.259Z,27.00
2018-07-09T10:36:01.547Z,26.70
2018-07-09T10:38:29.831Z,26.50
2018-07-09T10:40:58.206Z,26.40
2018-07-09T10:43:26.491Z,26.30
2018-07-09T10:45:54.894Z,26.20
2018-07-09T10:48:23.181Z,26.10
2018-07-09T10:53:26.916Z,26.00
2018-07-09T10:55:55.280Z,25.90
2018-07-09T10:58:23.588Z,26.00
2018-07-09T11:00:52.001Z,26.00
2018-07-09T11:03:20.257Z,26.00
2018-07-09T11:05:48.644Z,26.10
2018-07-09T11:08:16.969Z,26.10
2018-07-09T11:10:45.373Z,26.10
2018-07-09T11:13:13.638Z,26.00
2018-07-09T11:15:41.997Z,26.00
2018-07-09T11:18:10.365Z,26.00
2018-07-09T11:20:38.646Z,26.00
2018-07-09T11:23:06.948Z,26.00
2018-07-09T11:25:35.533Z,25.90
2018-07-09T11:28:03.990Z,25.90
2018-07-09T11:30:32.331Z,25.90
2018-07-09T11:33:00.617Z,25.70
2018-07-09T11:35:29.611Z,25.60
2018-07-09T11:37:57.945Z,25.60
2018-07-09T11:42:54.307Z,25.70
2018-07-09T11:45:22.639Z,25.70
2018-07-09T11:47:51.439Z,25.70
2018-07-09T11:50:19.759Z,25.70
2018-07-09T11:52:48.029Z,25.80
2018-07-09T11:55:16.387Z,25.80
2018-07-09T11:57:44.706Z,25.90
2018-07-09T12:00:13.045Z,26.00
2018-07-09T12:02:41.559Z,26.00
2018-07-09T12:05:10.220Z,26.00
2018-07-09T12:07:38.579Z,26.10
2018-07-09T12:10:06.857Z,26.10
2018-07-09T12:12:35.077Z,26.20
2018-07-09T12:15:03.456Z,26.30
2018-07-09T12:17:31.741Z,26.40
2018-07-09T12:20:00.340Z,26.40
2018-07-09T12:24:56.755Z,26.60
2018-07-09T12:27:25.017Z,26.80
2018-07-09T12:29:53.320Z,26.90
2018-07-09T12:32:21.604Z,27.00
2018-07-09T12:34:49.856Z,27.00
2018-07-09T12:37:18.240Z,27.00
2018-07-09T12:39:46.553Z,27.10
2018-07-09T12:42:14.917Z,27.00
2018-07-09T12:44:43.300Z,27.00
2018-07-09T12:47:11.678Z,26.90
2018-07-09T12:49:40.426Z,26.80
2018-07-09T12:52:08.992Z,26.80
2018-07-09T12:54:37.294Z,26.80
2018-07-09T12:57:05.695Z,26.70
2018-07-09T13:02:02.940Z,26.70
2018-07-09T13:04:31.231Z,26.80
2018-07-09T13:06:59.491Z,26.80
2018-07-09T13:09:27.841Z,26.80
2018-07-09T13:11:56.308Z,26.80
2018-07-09T13:14:24.714Z,26.90
2018-07-09T13:16:53.115Z,26.90
2018-07-09T13:19:21.499Z,27.00
2018-07-09T13:21:49.881Z,27.00
2018-07-09T13:24:18.167Z,27.10
2018-07-09T13:26:46.496Z,27.20
2018-07-09T13:29:14.748Z,27.20
2018-07-09T13:31:43.210Z,27.30
2018-07-09T13:34:11.605Z,27.40
2018-07-09T13:36:39.936Z,27.40
2018-07-09T13:39:08.240Z,27.40
2018-07-09T13:41:36.548Z,27.40
2018-07-09T13:44:04.851Z,27.50
2018-07-09T13:46:33.317Z,27.40
2018-07-09T13:49:02.207Z,27.40
2018-07-09T13:51:30.486Z,27.40
2018-07-09T13:53:58.823Z,27.50
2018-07-09T13:56:27.144Z,27.60
2018-07-09T13:58:55.519Z,27.60
2018-07-09T14:01:23.836Z,27.70
2018-07-09T14:03:52.347Z,27.70
2018-07-09T14:06:20.631Z,27.70
2018-07-09T14:08:48.924Z,27.70
2018-07-09T14:11:17.242Z,27.70
2018-07-09T14:13:45.518Z,27.70
2018-07-09T14:16:13.793Z,27.70
2018-07-09T14:18:42.857Z,27.70
2018-07-09T14:21:11.097Z,27.70
2018-07-09T14:23:39.412Z,27.70
2018-07-09T14:26:08.081Z,27.70
2018-07-09T14:28:36.408Z,27.60
2018-07-09T14:31:04.718Z,27.70
2018-07-09T14:33:33.741Z,27.70
2018-07-09T14:36:02.220Z,27.70
2018-07-09T14:38:30.456Z,27.80
2018-07-09T14:40:58.738Z,27.80
2018-07-09T14:43:27.059Z,27.70
2018-07-09T14:45:55.400Z,27.70
2018-07-09T14:48:23.782Z,27.70
2018-07-09T14:50:52.103Z,27.70
2018-07-09T14:53:20.403Z,27.70
2018-07-09T14:55:48.741Z,27.70
2018-07-09T14:58:17.040Z,27.60
2018-07-09T15:00:45.461Z,27.60
2018-07-09T15:03:13.811Z,27.60
2018-07-09T15:05:43.177Z,27.60
2018-07-09T15:08:12.373Z,27.60
2018-07-09T15:10:40.829Z,27.60
2018-07-09T15:13:09.229Z,27.60
2018-07-09T15:15:37.631Z,27.60
2018-07-09T15:18:05.977Z,27.60
2018-07-09T15:20:34.260Z,27.60
2018-07-09T15:23:02.554Z,27.70
2018-07-09T15:25:30.923Z,27.80
2018-07-09T15:27:59.249Z,27.90
2018-07-09T15:30:27.557Z,27.90
2018-07-09T15:32:55.814Z,27.80
2018-07-09T15:35:24.087Z,27.80
2018-07-09T15:37:52.583Z,27.80
2018-07-09T15:40:21.073Z,27.90
2018-07-09T15:42:49.331Z,27.80
2018-07-09T15:45:17.616Z,27.80
2018-07-09T15:47:45.958Z,27.80
2018-07-09T15:50:14.581Z,27.90
2018-07-09T15:52:42.936Z,27.80
2018-07-09T15:55:11.254Z,27.80
2018-07-09T15:57:39.547Z,27.70
2018-07-09T16:00:07.886Z,27.50
2018-07-09T16:02:36.186Z,27.40
2018-07-09T16:05:04.537Z,27.40
2018-07-09T16:07:32.897Z,27.40
2018-07-09T16:10:01.162Z,27.50
2018-07-09T16:12:29.442Z,27.60
2018-07-09T16:14:57.835Z,27.60
2018-07-09T16:17:26.144Z,27.60
2018-07-09T16:24:50.617Z,27.60
2018-07-09T16:27:18.977Z,27.60
2018-07-09T16:29:47.328Z,27.60
2018-07-09T16:32:15.677Z,27.60
2018-07-09T16:34:43.934Z,27.50
2018-07-09T16:37:12.199Z,27.50
2018-07-09T16:39:40.600Z,27.50
2018-07-09T16:42:08.846Z,27.60
2018-07-09T16:44:37.127Z,27.50
2018-07-09T16:47:05.398Z,27.40
2018-07-09T16:49:33.645Z,27.40
2018-07-09T16:52:02.000Z,27.30
2018-07-09T16:54:30.356Z,27.30
2018-07-09T16:56:58.698Z,27.20
2018-07-09T16:59:27.521Z,27.20
2018-07-09T17:01:55.836Z,27.10
2018-07-09T17:04:24.212Z,27.10
2018-07-09T17:06:52.689Z,27.00
2018-07-09T17:11:48.959Z,27.00
2018-07-09T17:14:17.429Z,27.00
2018-07-09T17:16:45.881Z,27.00
2018-07-09T17:19:14.248Z,26.90
2018-07-09T17:21:42.635Z,26.80
2018-07-09T17:24:10.953Z,26.70
2018-07-09T17:26:39.387Z,26.70
2018-07-09T17:29:07.600Z,26.60
2018-07-09T17:31:35.897Z,26.60
2018-07-09T17:34:04.238Z,26.50
2018-07-09T17:36:32.508Z,26.40
2018-07-09T17:39:00.873Z,26.30
2018-07-09T17:41:29.196Z,26.30
2018-07-09T17:43:57.523Z,26.30
2018-07-09T17:46:25.769Z,26.30
2018-07-09T17:48:54.059Z,26.20
2018-07-09T17:51:23.018Z,26.10
2018-07-09T17:53:51.437Z,26.10
2018-07-09T17:56:20.055Z,26.00
2018-07-09T17:58:48.316Z,26.00
2018-07-09T18:01:16.690Z,25.90
2018-07-09T18:03:45.029Z,25.90
2018-07-09T18:06:13.319Z,25.90
2018-07-09T18:08:41.603Z,25.80
2018-07-09T18:11:09.950Z,25.80
2018-07-09T18:13:38.256Z,25.80
2018-07-09T18:16:06.571Z,25.80
2018-07-09T18:18:35.555Z,25.80
2018-07-09T18:21:03.818Z,25.80
2018-07-09T18:23:32.360Z,25.80
2018-07-09T18:26:00.820Z,25.80
2018-07-09T18:28:29.482Z,25.70
2018-07-09T18:30:57.755Z,25.70
2018-07-09T18:33:27.184Z,25.70
2018-07-09T18:35:55.488Z,25.70
2018-07-09T18:38:23.757Z,25.70
2018-07-09T18:40:52.080Z,25.70
2018-07-09T18:43:20.382Z,25.60
2018-07-09T18:45:48.684Z,25.60
2018-07-09T18:48:17.502Z,25.60
2018-07-09T18:50:45.812Z,25.50
2018-07-09T18:55:42.160Z,25.50
2018-07-09T18:58:10.420Z,25.50
2018-07-09T19:00:39.928Z,25.40
2018-07-09T19:03:08.225Z,25.40
2018-07-09T19:05:53.782Z,25.30
2018-07-09T19:08:22.055Z,25.30
2018-07-09T19:10:50.419Z,25.30
2018-07-09T19:13:18.675Z,25.30
2018-07-09T19:15:48.014Z,25.30
2018-07-09T19:18:29.316Z,25.20
2018-07-09T19:21:35.942Z,25.20
2018-07-09T19:24:04.386Z,25.10
2018-07-09T19:26:31.890Z,24.90
2018-07-09T19:28:59.212Z,24.80
2018-07-09T19:31:26.450Z,24.70
2018-07-09T19:36:21.356Z,24.70
2018-07-09T19:38:48.570Z,24.60
2018-07-09T19:41:15.917Z,24.50
2018-07-09T19:43:43.165Z,24.60
2018-07-09T19:46:10.416Z,24.60
2018-07-09T19:51:05.200Z,24.60
2018-07-09T19:53:32.504Z,24.50
2018-07-09T19:55:59.772Z,24.50
2018-07-09T19:58:26.998Z,24.50
2018-07-09T20:03:21.994Z,24.50
2018-07-09T20:05:49.279Z,24.50
2018-07-09T20:08:16.523Z,24.40
2018-07-09T20:10:49.088Z,24.50
2018-07-09T20:13:21.643Z,24.40
2018-07-09T20:15:54.292Z,24.50
2018-07-09T20:18:21.919Z,24.50
2018-07-09T20:20:49.211Z,24.40
2018-07-09T20:23:16.453Z,24.40
2018-07-09T20:28:11.204Z,24.40
2018-07-09T20:30:38.470Z,24.40
2018-07-09T20:33:05.694Z,24.40
2018-07-09T20:35:32.913Z,24.40
2018-07-09T20:38:00.207Z,24.40
2018-07-09T20:40:27.465Z,24.40
2018-07-09T20:42:54.679Z,24.30
2018-07-09T20:45:24.394Z,24.30
2018-07-09T20:47:51.676Z,24.30
2018-07-09T20:50:19.132Z,24.30
2018-07-09T20:52:46.427Z,24.30
2018-07-09T20:57:41.145Z,24.10
2018-07-09T21:00:08.401Z,24.00
2018-07-09T21:02:35.726Z,23.90
2018-07-09T21:05:02.940Z,24.00
2018-07-09T21:07:30.224Z,24.00
2018-07-09T21:09:57.483Z,24.00
2018-07-09T21:12:24.765Z,24.00
2018-07-09T21:14:52.061Z,24.00
2018-07-09T21:17:19.383Z,24.00
2018-07-09T21:19:46.642Z,23.90
2018-07-09T21:22:13.848Z,23.90
2018-07-09T21:24:41.084Z,23.80
2018-07-09T21:27:08.324Z,23.80
2018-07-09T21:29:35.587Z,23.90
2018-07-09T21:32:03.921Z,23.90
2018-07-09T21:34:31.131Z,23.90
2018-07-09T21:36:58.394Z,23.90
2018-07-09T21:41:53.182Z,23.90
2018-07-09T21:44:20.412Z,23.80
2018-07-09T21:46:47.637Z,23.80
2018-07-09T21:49:14.853Z,23.70
2018-07-09T21:51:42.088Z,23.70
2018-07-09T21:54:09.420Z,23.70
2018-07-09T21:56:36.642Z,23.70
2018-07-09T21:59:03.872Z,23.60
2018-07-09T22:01:31.113Z,23.70
2018-07-09T22:03:58.370Z,23.60
2018-07-09T22:06:25.809Z,23.50
2018-07-09T22:08:53.073Z,23.50
2018-07-09T22:11:20.345Z,23.50
2018-07-09T22:13:47.942Z,23.50
2018-07-09T22:16:15.219Z,23.50
2018-07-09T22:18:42.573Z,23.50
2018-07-09T22:21:09.808Z,23.40
2018-07-09T22:23:37.029Z,23.40
2018-07-09T22:26:04.284Z,23.50
2018-07-09T22:28:31.530Z,23.40
2018-07-09T22:30:59.911Z,23.40
2018-07-09T22:33:28.287Z,23.40
2018-07-09T22:35:56.561Z,23.40
2018-07-09T22:38:24.866Z,23.40
2018-07-09T22:40:53.232Z,23.40
2018-07-09T22:43:32.946Z,23.40
2018-07-09T22:46:01.214Z,23.40
2018-07-09T22:48:29.628Z,23.40
2018-07-09T22:53:25.991Z,23.40
2018-07-09T22:56:02.096Z,23.40
2018-07-09T22:58:30.341Z,23.40
2018-07-09T23:00:58.634Z,23.40
2018-07-09T23:03:26.891Z,23.40
2018-07-09T23:05:55.205Z,23.40
2018-07-09T23:08:23.585Z,23.40
2018-07-09T23:13:18.924Z,23.40
2018-07-09T23:15:58.681Z,23.30
2018-07-09T23:18:38.351Z,23.20
2018-07-09T23:22:15.990Z,23.20
2018-07-09T23:24:43.261Z,23.10
2018-07-09T23:27:10.528Z,23.10
2018-07-09T23:29:37.813Z,23.00
2018-07-09T23:32:05.121Z,23.00
2018-07-09T23:34:32.445Z,23.00
2018-07-09T23:37:00.763Z,23.00
2018-07-09T23:39:28.113Z,23.00
2018-07-09T23:41:55.411Z,23.00
2018-07-09T23:44:22.656Z,23.00
2018-07-09T23:46:49.891Z,22.90
2018-07-09T23:49:17.139Z,22.90
2018-07-09T23:51:44.406Z,22.90
2018-07-09T23:54:11.690Z,22.90
2018-07-09T23:58:53.161Z,22.90
